Time;durP1;ratioP1;P1;durP2;ratioP2;P2;SDS_P1;SDS_P2;PMS_P1;PMS_P2;Temp;Humidity;BMP_temperature;BMP_pressure;BME280_temperature;BME280_humidity;BME280_pressure;Samples;Min_cycle;Max_cycle;Signal;HPM_P1;HPM_P2
2024/03/15 00:02:24;;;;;;;5.85;3.33;;;14.20;99.90;;;;;;5085043;28;20503;-77
2024/03/15 00:04:51;;;;;;;5.85;3.67;;;14.20;99.90;;;;;;5067530;28;20012;-77
2024/03/15 00:07:18;;;;;;;5.55;3.53;;;14.20;99.90;;;;;;5085265;28;20024;-78
2024/03/15 00:09:44;;;;;;;6.10;3.30;;;14.20;99.90;;;;;;5085557;28;20016;-77
2024/03/15 00:12:11;;;;;;;6.03;3.55;;;14.20;99.90;;;;;;5085679;28;20056;-77
2024/03/15 00:14:37;;;;;;;6.47;4.00;;;14.20;99.90;;;;;;5086396;28;20552;-79
2024/03/15 00:17:03;;;;;;;10.40;4.03;;;14.20;99.90;;;;;;5085432;28;20024;-77
2024/03/15 00:19:29;;;;;;;6.53;3.63;;;14.20;99.90;;;;;;5085897;28;20118;-78
2024/03/15 00:21:55;;;;;;;7.07;3.83;;;14.20;99.90;;;;;;5085241;28;20466;-78
2024/03/15 00:24:20;;;;;;;6.53;4.10;;;14.30;99.90;;;;;;5085603;28;20112;-78
2024/03/15 00:26:46;;;;;;;6.18;4.10;;;14.20;99.90;;;;;;5085270;28;20488;-77
2024/03/15 00:29:13;;;;;;;6.63;4.03;;;14.20;99.90;;;;;;5085748;28;20024;-77
2024/03/15 00:31:39;;;;;;;8.02;4.10;;;14.20;99.90;;;;;;5066738;28;20484;-77
2024/03/15 00:34:08;;;;;;;7.57;3.88;;;14.20;99.90;;;;;;5085936;28;20027;-78
2024/03/15 00:36:35;;;;;;;6.45;4.32;;;14.10;99.90;;;;;;5085697;28;20016;-77
2024/03/15 00:39:02;;;;;;;7.60;4.20;;;14.10;99.90;;;;;;5085854;28;20036;-78
2024/03/15 00:41:28;;;;;;;7.60;4.30;;;14.10;99.90;;;;;;5089427;28;20031;-77
2024/03/15 00:43:54;;;;;;;8.20;4.38;;;14.10;99.90;;;;;;5089638;28;20028;-78
2024/03/15 00:46:20;;;;;;;6.38;3.95;;;14.10;99.90;;;;;;5071175;28;20031;-77
2024/03/15 00:48:55;;;;;;;7.82;4.05;;;14.10;99.90;;;;;;5089378;28;20524;-77
2024/03/15 00:51:21;;;;;;;7.93;4.70;;;14.10;99.90;;;;;;5070360;28;20440;-78
2024/03/15 00:53:46;;;;;;;6.93;3.65;;;14.10;99.90;;;;;;5088992;28;20027;-77
2024/03/15 00:56:12;;;;;;;9.68;4.05;;;14.10;99.90;;;;;;5089173;28;20024;-75
2024/03/15 00:58:41;;;;;;;6.75;4.10;;;14.10;99.90;;;;;;5089377;28;20051;-80
2024/03/15 01:01:06;;;;;;;8.27;3.70;;;14.10;99.90;;;;;;5070158;28;20019;-77
2024/03/15 01:03:32;;;;;;;7.05;4.28;;;14.10;99.90;;;;;;5071000;28;20039;-78
2024/03/15 01:06:01;;;;;;;6.05;4.05;;;14.10;99.90;;;;;;5070498;28;20024;-77
2024/03/15 01:08:28;;;;;;;6.65;3.63;;;14.10;99.90;;;;;;5089071;28;20111;-77
2024/03/15 01:10:54;;;;;;;8.07;4.15;;;14.10;99.90;;;;;;5088110;28;20035;-77
2024/03/15 01:13:19;;;;;;;8.30;4.22;;;14.00;99.90;;;;;;5089057;28;20028;-78
2024/03/15 01:15:46;;;;;;;7.55;4.70;;;14.00;99.90;;;;;;5088225;28;20028;-77
2024/03/15 01:18:12;;;;;;;6.85;4.28;;;14.00;99.90;;;;;;5088789;28;20099;-78
2024/03/15 01:20:39;;;;;;;7.65;4.57;;;14.10;99.90;;;;;;5088184;28;20032;-78
2024/03/15 01:23:05;;;;;;;8.68;3.95;;;14.10;99.90;;;;;;5088901;28;20026;-79
2024/03/15 01:25:31;;;;;;;6.35;3.90;;;14.10;99.90;;;;;;5088834;28;20031;-78
2024/03/15 01:27:57;;;;;;;8.73;4.47;;;14.10;99.90;;;;;;5087592;28;20024;-76
2024/03/15 01:30:23;;;;;;;6.82;4.13;;;14.10;99.90;;;;;;5070492;28;20419;-78
2024/03/15 01:32:49;;;;;;;8.68;4.30;;;14.10;99.90;;;;;;5087610;28;20023;-78
2024/03/15 01:35:16;;;;;;;8.98;4.60;;;14.10;99.90;;;;;;5082505;28;20362;-77
2024/03/15 01:37:43;;;;;;;9.88;4.25;;;14.10;99.90;;;;;;5087962;28;20058;-78
2024/03/15 01:40:10;;;;;;;8.88;4.78;;;14.10;99.90;;;;;;5070125;28;20016;-78
2024/03/15 01:42:36;;;;;;;8.95;4.22;;;14.10;99.90;;;;;;5070000;28;20082;-78
2024/03/15 01:45:03;;;;;;;7.10;4.55;;;14.10;99.90;;;;;;5089419;28;20024;-78
2024/03/15 01:47:30;;;;;;;7.43;4.15;;;14.10;99.90;;;;;;5088433;28;20031;-77
2024/03/15 01:49:57;;;;;;;6.50;3.60;;;14.10;99.90;;;;;;5087856;28;20074;-78
2024/03/15 01:52:24;;;;;;;9.30;4.43;;;14.10;99.90;;;;;;5087801;28;20206;-78
2024/03/15 01:54:51;;;;;;;7.47;4.25;;;14.10;99.90;;;;;;5089000;28;20032;-78
2024/03/15 01:57:18;;;;;;;7.28;4.60;;;14.10;99.90;;;;;;5088451;28;20107;-76
2024/03/15 01:59:49;;;;;;;7.35;3.80;;;14.10;99.90;;;;;;5088705;28;20019;-78
2024/03/15 02:02:15;;;;;;;8.60;4.53;;;14.10;99.90;;;;;;5070881;28;20077;-77
2024/03/15 02:04:41;;;;;;;7.75;4.07;;;14.10;99.90;;;;;;5088927;28;20020;-76
2024/03/15 02:07:08;;;;;;;6.47;4.35;;;14.10;99.90;;;;;;5070735;28;20588;-77
2024/03/15 02:09:34;;;;;;;6.25;3.78;;;14.10;99.90;;;;;;5089083;28;20024;-78
2024/03/15 02:12:00;;;;;;;7.10;4.10;;;14.10;99.90;;;;;;5088019;28;20089;-77
2024/03/15 02:14:26;;;;;;;9.10;4.72;;;14.10;99.90;;;;;;5088580;28;20396;-77
2024/03/15 02:16:53;;;;;;;8.27;3.90;;;14.10;99.90;;;;;;5087697;28;20035;-78
2024/03/15 02:19:19;;;;;;;6.60;4.05;;;14.10;99.90;;;;;;5088763;28;20016;-77
2024/03/15 02:21:48;;;;;;;10.27;4.68;;;14.10;99.90;;;;;;5088238;28;20024;-78
2024/03/15 02:24:15;;;;;;;7.63;4.32;;;14.10;99.90;;;;;;5070005;28;20504;-77
2024/03/15 02:26:41;;;;;;;6.28;4.32;;;14.10;99.90;;;;;;5087805;28;20035;-77
2024/03/15 02:29:08;;;;;;;7.70;4.18;;;14.10;99.90;;;;;;5087845;28;20026;-77
2024/03/15 02:31:34;;;;;;;8.80;4.28;;;14.00;99.90;;;;;;5087461;28;20052;-78
2024/03/15 02:34:00;;;;;;;5.72;4.00;;;14.10;99.90;;;;;;5086720;28;20051;-77
2024/03/15 02:36:26;;;;;;;6.10;3.80;;;14.10;99.90;;;;;;5065813;28;20115;-78
2024/03/15 02:38:51;;;;;;;8.00;4.38;;;14.00;99.90;;;;;;5088575;28;20565;-77
2024/03/15 02:41:18;;;;;;;8.68;4.10;;;14.10;99.90;;;;;;5069089;28;20032;-78
2024/03/15 02:43:46;;;;;;;7.65;3.88;;;14.10;99.90;;;;;;5083915;28;20024;-78
2024/03/15 02:46:15;;;;;;;7.65;4.03;;;14.10;99.90;;;;;;5087574;28;20028;-78
2024/03/15 02:48:40;;;;;;;7.13;3.75;;;14.10;99.90;;;;;;5087256;28;20488;-77
2024/03/15 02:51:07;;;;;;;9.73;3.95;;;14.10;99.90;;;;;;5086792;28;20075;-77
2024/03/15 02:53:32;;;;;;;6.55;4.13;;;14.10;99.90;;;;;;5087645;28;20030;-78
2024/03/15 02:56:01;;;;;;;6.75;4.00;;;14.10;99.90;;;;;;5086983;28;20020;-78
2024/03/15 02:58:28;;;;;;;7.75;4.00;;;14.10;99.90;;;;;;5087258;28;20107;-78
2024/03/15 03:00:57;;;;;;;8.70;4.22;;;14.00;99.90;;;;;;5087101;28;20024;-78
2024/03/15 03:03:23;;;;;;;7.28;3.95;;;14.10;99.90;;;;;;5086099;28;20048;-78
2024/03/15 03:05:51;;;;;;;8.60;4.15;;;14.00;99.90;;;;;;5087024;28;20051;-77
2024/03/15 03:08:16;;;;;;;6.55;3.83;;;14.00;99.90;;;;;;5086532;28;20028;-78
2024/03/15 03:10:42;;;;;;;7.05;3.92;;;14.00;99.90;;;;;;5086414;28;20469;-78
2024/03/15 03:13:08;;;;;;;6.80;3.95;;;13.90;99.90;;;;;;5086333;28;20028;-78
2024/03/15 03:15:34;;;;;;;8.35;4.10;;;13.90;99.90;;;;;;5087103;28;20063;-79
2024/03/15 03:18:00;;;;;;;8.30;4.40;;;13.90;99.90;;;;;;5084585;28;20089;-78
2024/03/15 03:20:32;;;;;;;8.05;4.13;;;13.90;99.90;;;;;;5086809;28;20039;-78
2024/03/15 03:23:08;;;;;;;6.70;4.00;;;13.90;99.90;;;;;;5086408;28;20032;-77
2024/03/15 03:25:34;;;;;;;9.38;4.05;;;13.90;99.90;;;;;;5068505;28;20485;-78
2024/03/15 03:28:00;;;;;;;7.93;4.28;;;13.90;99.90;;;;;;5086449;28;20016;-78
2024/03/15 03:30:25;;;;;;;8.40;3.90;;;13.90;99.90;;;;;;5086218;28;20031;-78
2024/03/15 03:32:51;;;;;;;7.22;4.00;;;13.90;99.90;;;;;;5085922;28;20060;-78
2024/03/15 03:35:17;;;;;;;8.43;4.20;;;13.90;99.90;;;;;;5086784;28;20086;-78
2024/03/15 03:37:43;;;;;;;8.75;4.25;;;13.90;99.90;;;;;;5067505;28;20485;-79
2024/03/15 03:40:14;;;;;;;6.68;3.85;;;13.90;99.90;;;;;;5086528;28;20026;-78
2024/03/15 03:42:43;;;;;;;7.53;4.20;;;13.90;99.90;;;;;;5067937;28;20130;-79
2024/03/15 03:45:22;;;;;;;6.50;4.40;;;13.90;99.90;;;;;;5068158;28;20059;-78
2024/03/15 03:47:49;;;;;;;11.27;4.45;;;13.80;99.90;;;;;;5074028;28;20032;-78
2024/03/15 03:50:18;;;;;;;9.93;4.55;;;13.80;99.90;;;;;;5086457;28;20036;-78
2024/03/15 03:52:45;;;;;;;6.95;4.55;;;13.80;99.90;;;;;;5072294;28;20016;-78
2024/03/15 03:55:11;;;;;;;8.95;4.57;;;13.80;99.90;;;;;;5068795;28;20352;-78
2024/03/15 03:57:37;;;;;;;11.75;4.47;;;13.80;99.90;;;;;;5085849;28;20495;-78
2024/03/15 04:00:16;;;;;;;7.22;4.18;;;13.70;99.90;;;;;;5086591;28;20024;-75
2024/03/15 04:02:46;;;;;;;7.95;4.28;;;13.70;99.90;;;;;;5068089;28;20016;-75
2024/03/15 04:05:13;;;;;;;10.63;4.75;;;13.70;99.90;;;;;;5086885;28;20027;-73
2024/03/15 04:07:39;;;;;;;7.63;4.55;;;13.60;99.90;;;;;;5085747;28;20067;-74
2024/03/15 04:10:08;;;;;;;9.20;5.05;;;13.50;99.90;;;;;;5067652;28;20014;-74
2024/03/15 04:12:35;;;;;;;8.80;4.53;;;13.40;99.90;;;;;;5085522;28;20115;-73
2024/03/15 04:15:05;;;;;;;7.53;4.15;;;13.40;99.90;;;;;;5088045;28;20020;-74
2024/03/15 04:17:31;;;;;;;7.73;4.07;;;13.30;99.90;;;;;;5089613;28;20024;-74
2024/03/15 04:19:58;;;;;;;9.68;4.88;;;13.30;99.90;;;;;;5089842;28;20280;-74
2024/03/15 04:22:27;;;;;;;9.68;4.95;;;13.20;99.90;;;;;;5089563;28;20282;-74
2024/03/15 04:24:54;;;;;;;7.85;5.05;;;13.10;99.90;;;;;;5089906;28;20055;-73
2024/03/15 04:27:23;;;;;;;10.13;4.43;;;13.10;99.90;;;;;;5089788;28;20028;-75
2024/03/15 04:29:48;;;;;;;9.45;4.95;;;13.00;99.90;;;;;;5090146;28;20024;-73
2024/03/15 04:32:14;;;;;;;8.82;4.78;;;13.00;99.90;;;;;;5089374;28;20481;-74
2024/03/15 04:34:42;;;;;;;9.82;4.75;;;12.90;99.90;;;;;;5071199;28;20024;-73
2024/03/15 04:37:09;;;;;;;10.43;6.05;;;12.90;99.90;;;;;;5089655;28;20023;-74
2024/03/15 04:39:35;;;;;;;7.53;5.00;;;12.90;99.90;;;;;;5090296;28;20024;-71
2024/03/15 04:42:03;;;;;;;7.90;4.63;;;12.80;99.90;;;;;;5074948;28;20020;-74
2024/03/15 04:44:33;;;;;;;9.38;4.93;;;12.80;99.90;;;;;;5089900;28;20484;-74
2024/03/15 04:47:01;;;;;;;8.80;4.68;;;12.70;99.90;;;;;;5089928;28;20125;-74
2024/03/15 04:49:28;;;;;;;8.27;4.78;;;12.80;99.90;;;;;;5071423;28;20073;-73
2024/03/15 04:51:54;;;;;;;10.13;5.28;;;12.70;99.90;;;;;;5088540;28;20032;-74
2024/03/15 04:54:21;;;;;;;8.20;4.82;;;12.70;99.90;;;;;;5089665;28;20024;-74
2024/03/15 04:56:47;;;;;;;8.45;5.13;;;12.60;99.90;;;;;;5089572;28;20024;-75
2024/03/15 04:59:13;;;;;;;8.82;5.00;;;12.60;99.90;;;;;;5090324;28;20056;-74
2024/03/15 05:01:38;;;;;;;8.80;5.13;;;12.60;99.90;;;;;;5089530;28;20531;-74
2024/03/15 05:04:04;;;;;;;11.85;5.38;;;12.60;99.90;;;;;;5090236;28;20031;-74
2024/03/15 05:06:30;;;;;;;11.40;5.28;;;12.60;99.90;;;;;;5071072;28;20511;-74
2024/03/15 05:08:56;;;;;;;11.48;4.85;;;12.60;99.90;;;;;;5092646;28;20039;-73
2024/03/15 05:11:21;;;;;;;10.05;4.70;;;12.60;99.90;;;;;;5093653;28;20024;-73
2024/03/15 05:13:49;;;;;;;6.55;4.38;;;12.60;99.90;;;;;;5071993;28;20028;-75
2024/03/15 05:16:15;;;;;;;7.15;4.05;;;12.70;99.90;;;;;;5089238;28;20024;-74
2024/03/15 05:18:40;;;;;;;8.77;4.47;;;12.70;99.90;;;;;;5070216;28;20024;-74
2024/03/15 05:21:06;;;;;;;9.68;5.00;;;12.70;99.90;;;;;;5088828;28;20383;-74
2024/03/15 05:23:32;;;;;;;11.18;4.75;;;12.70;99.90;;;;;;5088062;28;20182;-74
2024/03/15 05:25:57;;;;;;;9.60;4.55;;;12.70;99.90;;;;;;5070169;28;20024;-75
2024/03/15 05:28:23;;;;;;;5.65;3.85;;;12.70;99.90;;;;;;5088402;28;20042;-74
2024/03/15 05:30:49;;;;;;;8.77;4.57;;;12.70;99.90;;;;;;5088097;28;20065;-74
2024/03/15 05:33:14;;;;;;;10.38;4.40;;;12.80;99.90;;;;;;5069521;28;20491;-74
2024/03/15 05:35:41;;;;;;;8.45;4.45;;;12.80;99.90;;;;;;5060562;28;20507;-73
2024/03/15 05:38:09;;;;;;;9.63;4.63;;;12.80;99.90;;;;;;5084352;28;20028;-74
2024/03/15 05:40:35;;;;;;;8.88;4.22;;;12.80;99.90;;;;;;5089192;28;20433;-74
2024/03/15 05:43:01;;;;;;;10.23;4.25;;;12.90;99.90;;;;;;5088641;28;20107;-74
2024/03/15 05:45:27;;;;;;;8.15;4.38;;;12.90;99.90;;;;;;5070335;28;20481;-74
2024/03/15 05:47:52;;;;;;;7.45;4.32;;;12.90;99.90;;;;;;5069497;28;20016;-74
2024/03/15 05:50:18;;;;;;;8.55;4.50;;;12.90;99.90;;;;;;5069967;28;20535;-74
2024/03/15 05:52:44;;;;;;;6.97;4.25;;;13.00;99.90;;;;;;5087365;28;20491;-75
2024/03/15 05:55:11;;;;;;;8.82;4.75;;;13.00;99.90;;;;;;5088296;28;20102;-75
2024/03/15 05:57:37;;;;;;;7.88;4.20;;;12.90;99.90;;;;;;5087527;28;20020;-75
2024/03/15 06:00:11;;;;;;;7.28;4.15;;;13.00;99.90;;;;;;5088050;28;20028;-74
2024/03/15 06:02:37;;;;;;;9.63;4.60;;;13.00;99.90;;;;;;5087557;28;20141;-74
2024/03/15 06:05:04;;;;;;;9.45;4.25;;;13.00;99.90;;;;;;5087852;28;20740;-75
2024/03/15 06:07:30;;;;;;;7.78;3.95;;;13.00;99.90;;;;;;5087347;28;20028;-74
2024/03/15 06:09:56;;;;;;;8.73;4.40;;;13.00;99.90;;;;;;5087541;28;20016;-74
2024/03/15 06:12:27;;;;;;;7.70;3.97;;;13.00;99.90;;;;;;5087533;28;20082;-75
2024/03/15 06:14:55;;;;;;;8.60;4.38;;;13.00;99.90;;;;;;5074255;28;20098;-73
2024/03/15 06:17:21;;;;;;;7.10;3.97;;;13.10;99.90;;;;;;5087627;28;20020;-76
2024/03/15 06:19:48;;;;;;;8.68;3.95;;;13.10;99.90;;;;;;5087544;28;20105;-75
2024/03/15 06:22:14;;;;;;;9.48;4.03;;;13.10;99.90;;;;;;5087186;28;20512;-75
2024/03/15 06:24:41;;;;;;;6.88;3.97;;;13.10;99.90;;;;;;5087806;28;20028;-76
2024/03/15 06:27:13;;;;;;;8.63;4.18;;;13.20;99.90;;;;;;5087328;28;20027;-75
2024/03/15 06:29:40;;;;;;;9.40;4.20;;;13.20;99.90;;;;;;5087360;28;20313;-76
2024/03/15 06:32:07;;;;;;;7.38;4.35;;;13.20;99.90;;;;;;5087167;28;20047;-76
2024/03/15 06:34:34;;;;;;;6.07;3.92;;;13.20;99.90;;;;;;5081181;28;20111;-75
2024/03/15 06:37:05;;;;;;;9.45;3.70;;;13.20;99.90;;;;;;5086051;28;20065;-75
2024/03/15 06:42:20;;;;;;;7.18;4.10;;;13.20;99.90;;;;;;5072713;28;20038;-75
2024/03/15 06:45:11;;;;;;;8.35;4.03;;;13.20;99.90;;;;;;5068892;28;20115;-76
2024/03/15 06:47:40;;;;;;;5.82;3.97;;;13.30;99.90;;;;;;5073927;28;20564;-74
2024/03/15 06:50:06;;;;;;;10.80;4.35;;;13.30;99.90;;;;;;5087963;28;20543;-76
2024/03/15 06:52:35;;;;;;;9.80;4.38;;;13.30;99.90;;;;;;5063615;28;20142;-77
2024/03/15 06:55:10;;;;;;;9.63;4.50;;;13.30;99.90;;;;;;5077600;28;20397;-77
2024/03/15 06:57:37;;;;;;;8.48;4.30;;;13.30;99.90;;;;;;5074136;28;20042;-76
2024/03/15 07:00:14;;;;;;;6.45;3.40;;;13.30;99.90;;;;;;5056568;28;20031;-77
2024/03/15 07:02:41;;;;;;;10.38;4.53;;;13.40;99.90;;;;;;5049507;28;20013;-77
2024/03/15 07:05:08;;;;;;;6.63;3.70;;;13.30;99.90;;;;;;5077008;28;20017;-78
2024/03/15 07:07:37;;;;;;;7.90;4.32;;;13.40;99.90;;;;;;5082333;28;20028;-78
2024/03/15 07:10:03;;;;;;;6.57;3.47;;;13.30;99.90;;;;;;5084042;28;21006;-78
2024/03/15 07:12:30;;;;;;;8.98;3.90;;;13.40;99.90;;;;;;5077726;28;20047;-77
2024/03/15 07:14:55;;;;;;;7.85;3.92;;;13.40;99.90;;;;;;5081136;28;20016;-78
2024/03/15 07:17:24;;;;;;;8.88;4.10;;;13.40;99.90;;;;;;5080302;28;20036;-77
2024/03/15 07:19:50;;;;;;;6.50;3.70;;;13.40;99.90;;;;;;5077998;28;20586;-77
2024/03/15 07:22:16;;;;;;;6.45;3.85;;;13.50;99.90;;;;;;5069303;28;20275;-77
2024/03/15 07:24:43;;;;;;;6.90;4.00;;;13.50;99.90;;;;;;5069963;28;20035;-77
2024/03/15 07:27:09;;;;;;;7.93;4.00;;;13.50;99.90;;;;;;5065583;28;20033;-76
2024/03/15 07:29:35;;;;;;;7.50;4.03;;;13.60;99.90;;;;;;5067343;28;20021;-77
2024/03/15 07:32:01;;;;;;;7.97;4.28;;;13.60;99.90;;;;;;5068544;28;20039;-77
2024/03/15 07:34:27;;;;;;;9.70;4.25;;;13.60;99.90;;;;;;5078090;28;20143;-77
2024/03/15 07:36:56;;;;;;;6.78;3.97;;;13.70;99.90;;;;;;5078466;28;20047;-78
2024/03/15 07:39:23;;;;;;;7.03;3.95;;;13.70;99.90;;;;;;5074743;28;20378;-77
2024/03/15 07:41:49;;;;;;;8.40;4.20;;;13.80;99.90;;;;;;5059202;28;20544;-77
2024/03/15 07:44:15;;;;;;;8.15;4.05;;;13.80;99.90;;;;;;5069609;28;20039;-77
2024/03/15 07:46:42;;;;;;;7.28;3.92;;;13.90;99.90;;;;;;5065959;28;20028;-77
2024/03/15 07:49:08;;;;;;;6.15;4.03;;;14.00;99.90;;;;;;5078144;28;20420;-77
2024/03/15 07:51:35;;;;;;;8.40;4.15;;;14.00;99.90;;;;;;5081765;28;20083;-78
2024/03/15 07:54:01;;;;;;;8.45;3.60;;;14.00;99.90;;;;;;5054304;28;20052;-77
2024/03/15 07:56:27;;;;;;;7.15;3.53;;;13.90;99.90;;;;;;5075140;28;20055;-77
2024/03/15 07:58:52;;;;;;;8.45;3.90;;;13.90;99.90;;;;;;5085454;28;20059;-77
2024/03/15 08:01:19;;;;;;;6.93;3.28;;;13.90;99.90;;;;;;5084017;28;20044;-78
2024/03/15 08:03:46;;;;;;;6.85;3.40;;;14.00;99.90;;;;;;5066614;28;20020;-78
2024/03/15 08:06:12;;;;;;;10.60;4.28;;;14.00;99.90;;;;;;5079811;28;20338;-77
2024/03/15 08:08:38;;;;;;;6.95;3.75;;;14.10;99.90;;;;;;5073390;28;20120;-77
2024/03/15 08:11:04;;;;;;;5.72;3.47;;;14.10;99.90;;;;;;5071536;28;20063;-77
2024/03/15 08:13:30;;;;;;;6.38;3.65;;;14.10;99.90;;;;;;5067193;28;20482;-77
2024/03/15 08:15:59;;;;;;;8.52;3.10;;;14.10;99.90;;;;;;5074864;28;20023;-77
2024/03/15 08:18:28;;;;;;;5.13;3.00;;;14.10;99.90;;;;;;5083797;28;20115;-77
2024/03/15 08:20:54;;;;;;;9.43;2.80;;;14.10;99.90;;;;;;5071708;28;20562;-77
2024/03/15 08:23:20;;;;;;;6.35;3.03;;;14.10;99.90;;;;;;5074989;28;20115;-77
2024/03/15 08:25:46;;;;;;;8.65;3.10;;;14.10;99.90;;;;;;5069330;28;20032;-78
2024/03/15 08:28:15;;;;;;;10.85;3.25;;;14.10;99.90;;;;;;5052276;28;20032;-78
2024/03/15 08:30:43;;;;;;;6.70;3.03;;;14.10;99.90;;;;;;5057929;28;20431;-77
2024/03/15 08:33:09;;;;;;;7.80;3.88;;;14.20;99.90;;;;;;5071692;28;20024;-78
2024/03/15 08:35:35;;;;;;;7.07;3.60;;;14.20;99.90;;;;;;5084717;28;20031;-78
2024/03/15 08:38:01;;;;;;;6.55;2.70;;;14.30;99.90;;;;;;5080578;28;20381;-78
2024/03/15 08:43:02;;;;;;;6.13;3.45;;;14.30;99.90;;;;;;5256458;22;20036;-91
2024/03/15 08:45:29;;;;;;;7.70;3.08;;;14.30;99.90;;;;;;5069818;22;20048;-77
2024/03/15 08:47:55;;;;;;;7.35;3.42;;;14.30;99.90;;;;;;5065147;28;20082;-77
2024/03/15 08:50:21;;;;;;;6.93;2.75;;;14.30;99.90;;;;;;5065079;28;20056;-77
2024/03/15 08:52:48;;;;;;;6.68;3.20;;;14.30;99.90;;;;;;5065225;28;20153;-77
2024/03/15 08:55:13;;;;;;;6.15;3.20;;;14.30;99.90;;;;;;5045986;28;20498;-76
2024/03/15 08:57:39;;;;;;;8.18;3.72;;;14.20;99.90;;;;;;5056818;28;20032;-77
2024/03/15 09:00:11;;;;;;;7.25;2.83;;;14.20;99.90;;;;;;5063807;28;20835;-77
2024/03/15 09:02:40;;;;;;;8.13;3.65;;;14.20;99.90;;;;;;5068425;28;20028;-76
2024/03/15 09:05:08;;;;;;;6.75;3.20;;;14.10;99.90;;;;;;5050705;28;20028;-76
2024/03/15 09:07:38;;;;;;;6.63;3.35;;;14.00;99.90;;;;;;5069014;28;20077;-76
2024/03/15 09:10:13;;;;;;;7.53;3.65;;;14.00;99.90;;;;;;5068977;28;20025;-76
2024/03/15 09:12:40;;;;;;;6.80;3.60;;;14.00;99.90;;;;;;5068097;28;20104;-76
2024/03/15 09:18:11;;;;;;;8.93;3.50;;;13.90;99.90;;;;;;5024747;28;20515;-76
2024/03/15 09:20:42;;;;;;;6.55;3.50;;;13.90;99.90;;;;;;5017368;28;20250;-75
2024/03/15 09:23:11;;;;;;;6.75;3.05;;;13.90;99.90;;;;;;5024603;28;20056;-77
2024/03/15 09:25:36;;;;;;;12.13;4.30;;;13.90;99.90;;;;;;5043826;28;20025;-76
2024/03/15 09:28:02;;;;;;;6.53;3.20;;;13.90;99.90;;;;;;5044153;28;20481;-76
2024/03/15 09:30:42;;;;;;;4.45;2.58;;;13.90;99.90;;;;;;5028266;28;20028;-77
2024/03/15 09:33:11;;;;;;;5.20;2.30;;;14.00;99.90;;;;;;5019806;28;20041;-76
2024/03/15 09:35:40;;;;;;;4.40;2.53;;;14.00;99.90;;;;;;5039274;28;20492;-77
2024/03/15 09:38:07;;;;;;;8.25;2.75;;;14.00;99.90;;;;;;5027490;28;20025;-76
2024/03/15 09:40:33;;;;;;;9.15;2.20;;;14.00;99.90;;;;;;5027752;28;20113;-76
2024/03/15 09:42:59;;;;;;;4.53;2.33;;;14.10;99.90;;;;;;5028124;28;20104;-76
2024/03/15 09:45:26;;;;;;;4.45;2.30;;;14.10;99.90;;;;;;5028184;28;20285;-75
2024/03/15 09:47:53;;;;;;;7.97;2.40;;;14.20;99.90;;;;;;5043539;28;20018;-77
2024/03/15 09:50:29;;;;;;;6.22;2.03;;;14.30;99.90;;;;;;5028475;28;20028;-77
2024/03/15 09:52:56;;;;;;;4.22;2.13;;;14.40;99.90;;;;;;5027289;28;20049;-76
2024/03/15 09:55:22;;;;;;;8.85;2.55;;;14.40;99.90;;;;;;5029004;28;20025;-77
2024/03/15 09:57:50;;;;;;;5.90;2.17;;;14.50;99.90;;;;;;5028541;28;20064;-76
2024/03/15 10:00:17;;;;;;;7.68;2.25;;;14.50;99.90;;;;;;5026780;28;20076;-76
2024/03/15 10:02:47;;;;;;;5.78;2.30;;;14.60;99.90;;;;;;5019084;28;20030;-77
2024/03/15 10:05:14;;;;;;;5.82;1.92;;;14.70;99.90;;;;;;5020000;28;20048;-77
2024/03/15 10:07:40;;;;;;;5.07;1.60;;;14.80;99.90;;;;;;5028038;28;20021;-77
2024/03/15 10:10:11;;;;;;;5.03;1.83;;;15.00;99.90;;;;;;5028688;28;20101;-77
2024/03/15 10:12:47;;;;;;;;;;;15.00;99.90;;;;;;5027395;28;20108;-76
2024/03/15 10:15:17;;;;;;;7.63;1.52;;;15.20;99.90;;;;;;5028209;28;19952;-77
2024/03/15 10:17:48;;;;;;;8.38;2.03;;;15.30;99.90;;;;;;5027084;28;20060;-77
2024/03/15 10:20:15;;;;;;;;;;;15.50;99.90;;;;;;5028303;28;20044;-78
2024/03/15 10:22:41;;;;;;;10.85;2.15;;;15.50;99.90;;;;;;5027679;28;20008;-77
2024/03/15 10:25:15;;;;;;;6.57;1.60;;;15.60;99.90;;;;;;5027718;28;20033;-77
2024/03/15 10:28:01;;;;;;;4.85;1.85;;;15.70;99.90;;;;;;5027582;28;20538;-77
2024/03/15 10:30:30;;;;;;;7.28;2.28;;;15.80;99.90;;;;;;5015541;28;20124;-77
2024/03/15 10:32:58;;;;;;;6.20;2.08;;;15.90;99.90;;;;;;5027269;28;20478;-78
2024/03/15 10:35:27;;;;;;;8.20;1.90;;;16.00;99.90;;;;;;5027814;28;20032;-78
2024/03/15 10:37:53;;;;;;;4.25;2.10;;;16.00;99.90;;;;;;5025321;28;20108;-78
2024/03/15 10:40:23;;;;;;;8.13;2.38;;;16.00;99.90;;;;;;5027358;28;20032;-77
2024/03/15 10:42:51;;;;;;;9.10;2.10;;;16.00;99.90;;;;;;5024433;28;20079;-77
2024/03/15 10:45:23;;;;;;;6.30;2.25;;;16.00;99.90;;;;;;5027290;28;20494;-78
2024/03/15 10:47:49;;;;;;;5.93;2.03;;;16.10;99.90;;;;;;5026952;28;20025;-77
2024/03/15 10:50:15;;;;;;;5.45;2.00;;;16.20;99.90;;;;;;5026881;28;20137;-77
2024/03/15 10:52:42;;;;;;;6.25;2.20;;;16.20;99.90;;;;;;5024424;28;20106;-78
2024/03/15 10:55:18;;;;;;;6.90;2.47;;;16.20;99.90;;;;;;5025531;28;20031;-78
2024/03/15 10:57:44;;;;;;;5.07;1.63;;;16.20;99.90;;;;;;5021284;28;20456;-78
2024/03/15 11:00:17;;;;;;;7.45;2.03;;;16.30;99.90;;;;;;5021348;28;20049;-78
2024/03/15 11:02:47;;;;;;;6.57;2.33;;;16.30;99.90;;;;;;5016882;28;20033;-78
2024/03/15 11:05:21;;;;;;;6.40;2.10;;;16.40;99.90;;;;;;5019792;28;20029;-78
2024/03/15 11:07:49;;;;;;;4.45;2.13;;;16.40;99.90;;;;;;5026337;28;20040;-77
2024/03/15 11:10:20;;;;;;;7.95;2.38;;;16.40;99.90;;;;;;5023726;28;20052;-78
2024/03/15 11:12:53;;;;;;;;;;;16.40;99.90;;;;;;5026100;28;20025;-78
2024/03/15 11:15:21;;;;;;;7.00;2.45;;;16.30;99.90;;;;;;5021941;28;19909;-78
2024/03/15 11:18:03;;;;;;;3.47;1.83;;;16.30;99.90;;;;;;5025891;28;20056;-78
2024/03/15 11:20:54;;;;;;;5.82;2.08;;;16.30;99.90;;;;;;5015468;28;20021;-78
2024/03/15 11:23:21;;;;;;;;;;;16.30;99.90;;;;;;5022660;28;20056;-79
2024/03/15 11:25:56;;;;;;;7.97;2.72;;;16.30;99.90;;;;;;5015730;28;19936;-79
2024/03/15 11:28:29;;;;;;;7.47;2.40;;;16.20;99.90;;;;;;5026079;28;20022;-78
2024/03/15 11:30:55;;;;;;;6.55;2.25;;;16.10;99.90;;;;;;5013459;28;20056;-78
2024/03/15 11:33:22;;;;;;;7.55;2.00;;;16.00;99.90;;;;;;5026330;28;20049;-78
2024/03/15 11:35:51;;;;;;;6.45;2.17;;;16.10;99.90;;;;;;5026814;28;20048;-78
2024/03/15 11:38:20;;;;;;;4.78;1.90;;;16.00;99.90;;;;;;5026267;28;20150;-79
2024/03/15 11:40:59;;;;;;;7.13;2.10;;;16.00;99.90;;;;;;5012581;28;20029;-78
2024/03/15 11:43:25;;;;;;;4.32;1.90;;;15.90;99.90;;;;;;5024678;28;20033;-77
2024/03/15 11:45:51;;;;;;;6.80;2.63;;;15.90;99.90;;;;;;5022591;28;20033;-76
2024/03/15 11:48:21;;;;;;;7.32;2.70;;;15.80;99.90;;;;;;5015425;28;20067;-77
2024/03/15 11:50:48;;;;;;;9.37;3.13;;;15.60;99.90;;;;;;5025826;28;20076;-77
2024/03/15 11:53:16;;;;;;;8.52;3.05;;;15.50;99.90;;;;;;5020024;28;20338;-77
2024/03/15 11:55:43;;;;;;;6.70;2.63;;;15.30;99.90;;;;;;5023680;28;20032;-76
2024/03/15 11:58:15;;;;;;;9.73;3.25;;;15.30;99.90;;;;;;5024550;28;20117;-76
2024/03/15 12:00:52;;;;;;;8.15;3.42;;;15.20;99.90;;;;;;5025433;28;20021;-76
2024/03/15 12:03:20;;;;;;;14.02;4.00;;;15.00;99.90;;;;;;5017267;28;20104;-75
2024/03/15 12:05:46;;;;;;;7.90;4.05;;;14.90;99.90;;;;;;5026025;28;20020;-74
2024/03/15 12:08:20;;;;;;;10.15;3.70;;;14.60;99.90;;;;;;5023979;28;20022;-75
2024/03/15 12:10:47;;;;;;;9.60;3.60;;;14.30;99.90;;;;;;5023129;28;20034;-74
2024/03/15 12:13:20;;;;;;;12.20;3.58;;;14.10;99.90;;;;;;5025107;28;20013;-75
2024/03/15 12:15:47;;;;;;;9.02;3.38;;;14.00;99.90;;;;;;5025203;28;20021;-74
2024/03/15 12:18:14;;;;;;;7.85;3.40;;;13.90;99.90;;;;;;5025206;28;20087;-74
2024/03/15 12:20:41;;;;;;;6.25;2.90;;;13.90;99.90;;;;;;5023773;28;20124;-74
2024/03/15 12:23:11;;;;;;;9.25;3.35;;;13.80;99.90;;;;;;5011323;28;20025;-73
2024/03/15 12:25:37;;;;;;;8.63;3.00;;;13.90;99.90;;;;;;5023175;28;20029;-73
2024/03/15 12:28:05;;;;;;;9.55;2.92;;;14.00;99.90;;;;;;5025292;28;20270;-73
2024/03/15 12:30:31;;;;;;;4.40;2.20;;;14.10;99.90;;;;;;5024097;28;20076;-74
2024/03/15 12:32:57;;;;;;;6.80;2.13;;;14.00;99.90;;;;;;5024966;28;20421;-74
2024/03/15 12:35:23;;;;;;;5.57;2.00;;;14.10;99.90;;;;;;5035529;28;20026;-74
2024/03/15 12:37:48;;;;;;;4.28;2.30;;;14.20;99.90;;;;;;5016903;28;20052;-75
2024/03/15 12:40:16;;;;;;;4.68;2.28;;;14.40;99.90;;;;;;5029245;28;20427;-75
2024/03/15 12:42:43;;;;;;;3.17;1.80;;;14.50;99.90;;;;;;5028856;28;20095;-74
2024/03/15 12:45:08;;;;;;;4.03;2.30;;;14.60;99.90;;;;;;5029628;28;20079;-75
2024/03/15 12:47:37;;;;;;;7.82;2.90;;;14.60;99.90;;;;;;5025278;28;20021;-75
2024/03/15 12:50:14;;;;;;;7.07;2.53;;;14.70;99.90;;;;;;5019093;28;20029;-75
2024/03/15 12:52:40;;;;;;;5.45;2.60;;;14.60;99.90;;;;;;5014734;28;20029;-75
2024/03/15 12:55:14;;;;;;;6.65;2.70;;;14.60;99.90;;;;;;5027934;28;20059;-75
2024/03/15 12:57:47;;;;;;;5.20;2.70;;;14.60;99.90;;;;;;5023654;28;20077;-73
2024/03/15 13:00:22;;;;;;;8.57;3.10;;;14.70;99.90;;;;;;5025525;28;20025;-74